sensor_id;sensor_type;location;lat;lon;timestamp;P1;durP1;ratioP1;P2;durP2;ratioP2
48987;SDS011;34799;51.440;-2.534;2023-05-07T00:00:09;20.52;;;6.95;;
48987;SDS011;34799;51.440;-2.534;2023-05-07T00:02:37;18.15;;;6.97;;
48987;SDS011;34799;51.440;-2.534;2023-05-07T00:05:04;16.98;;;6.90;;
48987;SDS011;34799;51.440;-2.534;2023-05-07T00:07:32;17.77;;;7.03;;
48987;SDS011;34799;51.440;-2.534;2023-05-07T00:09:59;21.13;;;7.60;;
48987;SDS011;34799;51.440;-2.534;2023-05-07T00:12:29;17.00;;;7.45;;
48987;SDS011;34799;51.440;-2.534;2023-05-07T00:15:01;24.88;;;8.05;;
48987;SDS011;34799;51.440;-2.534;2023-05-07T00:17:30;22.00;;;8.63;;
48987;SDS011;34799;51.440;-2.534;2023-05-07T00:19:59;18.05;;;7.50;;
48987;SDS011;34799;51.440;-2.534;2023-05-07T00:22:26;23.30;;;8.32;;
48987;SDS011;34799;51.440;-2.534;2023-05-07T00:24:53;26.80;;;8.43;;
48987;SDS011;34799;51.440;-2.534;2023-05-07T00:27:21;23.20;;;8.88;;
48987;SDS011;34799;51.440;-2.534;2023-05-07T00:29:51;19.90;;;7.72;;
48987;SDS011;34799;51.440;-2.534;2023-05-07T00:32:18;22.25;;;8.60;;
48987;SDS011;34799;51.440;-2.534;2023-05-07T00:34:45;17.15;;;8.43;;
48987;SDS011;34799;51.440;-2.534;2023-05-07T00:37:12;21.80;;;8.77;;
48987;SDS011;34799;51.440;-2.534;2023-05-07T00:39:39;28.55;;;8.30;;
48987;SDS011;34799;51.440;-2.534;2023-05-07T00:42:07;21.55;;;8.82;;
48987;SDS011;34799;51.440;-2.534;2023-05-07T00:44:34;22.35;;;8.82;;
48987;SDS011;34799;51.440;-2.534;2023-05-07T00:47:02;19.17;;;7.68;;
48987;SDS011;34799;51.440;-2.534;2023-05-07T00:49:37;19.50;;;8.52;;
48987;SDS011;34799;51.440;-2.534;2023-05-07T00:52:07;20.90;;;8.30;;
48987;SDS011;34799;51.440;-2.534;2023-05-07T00:54:37;26.02;;;8.07;;
48987;SDS011;34799;51.440;-2.534;2023-05-07T00:57:07;22.48;;;8.45;;
48987;SDS011;34799;51.440;-2.534;2023-05-07T00:59:36;17.10;;;7.57;;
48987;SDS011;34799;51.440;-2.534;2023-05-07T01:02:03;23.60;;;8.27;;
48987;SDS011;34799;51.440;-2.534;2023-05-07T01:04:31;21.08;;;8.95;;
48987;SDS011;34799;51.440;-2.534;2023-05-07T01:06:58;23.42;;;7.97;;
48987;SDS011;34799;51.440;-2.534;2023-05-07T01:09:28;25.17;;;8.82;;
48987;SDS011;34799;51.440;-2.534;2023-05-07T01:11:56;25.10;;;8.70;;
48987;SDS011;34799;51.440;-2.534;2023-05-07T01:14:25;20.77;;;8.02;;
48987;SDS011;34799;51.440;-2.534;2023-05-07T01:16:52;26.80;;;8.23;;
48987;SDS011;34799;51.440;-2.534;2023-05-07T01:19:22;25.10;;;8.65;;
48987;SDS011;34799;51.440;-2.534;2023-05-07T01:21:50;21.08;;;9.23;;
48987;SDS011;34799;51.440;-2.534;2023-05-07T01:24:19;23.33;;;9.32;;
48987;SDS011;34799;51.440;-2.534;2023-05-07T01:26:47;27.00;;;9.18;;
48987;SDS011;34799;51.440;-2.534;2023-05-07T01:29:16;23.30;;;8.75;;
48987;SDS011;34799;51.440;-2.534;2023-05-07T01:31:45;25.85;;;9.32;;
48987;SDS011;34799;51.440;-2.534;2023-05-07T01:34:13;26.73;;;10.52;;
48987;SDS011;34799;51.440;-2.534;2023-05-07T01:36:44;33.42;;;10.85;;
48987;SDS011;34799;51.440;-2.534;2023-05-07T01:39:13;28.02;;;11.45;;
48987;SDS011;34799;51.440;-2.534;2023-05-07T01:41:42;35.05;;;11.50;;
48987;SDS011;34799;51.440;-2.534;2023-05-07T01:44:10;37.33;;;12.13;;
48987;SDS011;34799;51.440;-2.534;2023-05-07T01:46:40;27.38;;;11.75;;
48987;SDS011;34799;51.440;-2.534;2023-05-07T01:49:08;30.15;;;12.02;;
48987;SDS011;34799;51.440;-2.534;2023-05-07T01:51:35;25.98;;;11.50;;
48987;SDS011;34799;51.440;-2.534;2023-05-07T01:54:03;29.58;;;11.73;;
48987;SDS011;34799;51.440;-2.534;2023-05-07T01:56:30;33.67;;;12.05;;
48987;SDS011;34799;51.440;-2.534;2023-05-07T01:58:59;30.75;;;12.25;;
48987;SDS011;34799;51.440;-2.534;2023-05-07T02:01:27;30.27;;;12.38;;
48987;SDS011;34799;51.440;-2.534;2023-05-07T02:03:54;37.47;;;10.95;;
48987;SDS011;34799;51.440;-2.534;2023-05-07T02:06:24;28.33;;;11.20;;
48987;SDS011;34799;51.440;-2.534;2023-05-07T02:08:57;31.23;;;10.20;;
48987;SDS011;34799;51.440;-2.534;2023-05-07T02:11:24;29.85;;;11.48;;
48987;SDS011;34799;51.440;-2.534;2023-05-07T02:13:51;28.40;;;11.48;;
48987;SDS011;34799;51.440;-2.534;2023-05-07T02:16:19;26.95;;;11.38;;
48987;SDS011;34799;51.440;-2.534;2023-05-07T02:18:49;27.10;;;10.55;;
48987;SDS011;34799;51.440;-2.534;2023-05-07T02:21:17;26.95;;;11.18;;
48987;SDS011;34799;51.440;-2.534;2023-05-07T02:23:53;25.00;;;11.35;;
48987;SDS011;34799;51.440;-2.534;2023-05-07T02:26:28;22.45;;;10.15;;
48987;SDS011;34799;51.440;-2.534;2023-05-07T02:28:57;27.80;;;10.48;;
48987;SDS011;34799;51.440;-2.534;2023-05-07T02:31:29;26.65;;;10.35;;
48987;SDS011;34799;51.440;-2.534;2023-05-07T02:34:01;22.92;;;10.30;;
48987;SDS011;34799;51.440;-2.534;2023-05-07T02:36:34;22.42;;;10.50;;
48987;SDS011;34799;51.440;-2.534;2023-05-07T02:39:10;22.05;;;9.90;;
48987;SDS011;34799;51.440;-2.534;2023-05-07T02:41:40;26.35;;;9.50;;
48987;SDS011;34799;51.440;-2.534;2023-05-07T02:44:16;24.67;;;9.27;;
48987;SDS011;34799;51.440;-2.534;2023-05-07T02:46:47;30.13;;;9.75;;
48987;SDS011;34799;51.440;-2.534;2023-05-07T02:49:16;22.42;;;8.70;;
48987;SDS011;34799;51.440;-2.534;2023-05-07T02:52:07;28.58;;;9.15;;
48987;SDS011;34799;51.440;-2.534;2023-05-07T02:54:38;24.63;;;9.05;;
48987;SDS011;34799;51.440;-2.534;2023-05-07T02:57:08;22.77;;;9.23;;
48987;SDS011;34799;51.440;-2.534;2023-05-07T02:59:39;28.35;;;8.05;;
48987;SDS011;34799;51.440;-2.534;2023-05-07T03:02:13;20.48;;;7.90;;
48987;SDS011;34799;51.440;-2.534;2023-05-07T03:04:44;24.55;;;9.18;;
48987;SDS011;34799;51.440;-2.534;2023-05-07T03:07:12;25.55;;;9.52;;
48987;SDS011;34799;51.440;-2.534;2023-05-07T03:09:44;23.38;;;9.23;;
48987;SDS011;34799;51.440;-2.534;2023-05-07T03:12:23;22.08;;;9.88;;
48987;SDS011;34799;51.440;-2.534;2023-05-07T03:14:51;21.83;;;9.40;;
48987;SDS011;34799;51.440;-2.534;2023-05-07T03:17:25;22.35;;;8.48;;
48987;SDS011;34799;51.440;-2.534;2023-05-07T03:19:56;21.25;;;7.30;;
48987;SDS011;34799;51.440;-2.534;2023-05-07T03:22:26;22.73;;;9.20;;
48987;SDS011;34799;51.440;-2.534;2023-05-07T03:25:02;26.60;;;9.52;;
48987;SDS011;34799;51.440;-2.534;2023-05-07T03:27:46;24.27;;;9.98;;
48987;SDS011;34799;51.440;-2.534;2023-05-07T03:30:24;25.73;;;9.85;;
48987;SDS011;34799;51.440;-2.534;2023-05-07T03:32:57;22.55;;;10.05;;
48987;SDS011;34799;51.440;-2.534;2023-05-07T03:35:27;31.60;;;11.13;;
48987;SDS011;34799;51.440;-2.534;2023-05-07T03:37:55;23.70;;;10.73;;
48987;SDS011;34799;51.440;-2.534;2023-05-07T03:40:34;26.15;;;12.35;;
48987;SDS011;34799;51.440;-2.534;2023-05-07T03:43:12;30.20;;;12.27;;
48987;SDS011;34799;51.440;-2.534;2023-05-07T03:45:48;30.38;;;12.43;;
48987;SDS011;34799;51.440;-2.534;2023-05-07T03:48:26;38.35;;;14.60;;
48987;SDS011;34799;51.440;-2.534;2023-05-07T03:50:59;36.10;;;15.77;;
48987;SDS011;34799;51.440;-2.534;2023-05-07T03:53:33;48.15;;;18.48;;
48987;SDS011;34799;51.440;-2.534;2023-05-07T03:56:14;52.97;;;19.13;;
48987;SDS011;34799;51.440;-2.534;2023-05-07T03:58:49;44.33;;;18.23;;
48987;SDS011;34799;51.440;-2.534;2023-05-07T04:01:23;46.85;;;19.17;;
48987;SDS011;34799;51.440;-2.534;2023-05-07T04:03:52;47.47;;;19.27;;
48987;SDS011;34799;51.440;-2.534;2023-05-07T04:06:21;43.10;;;18.58;;
48987;SDS011;34799;51.440;-2.534;2023-05-07T04:08:57;44.70;;;18.15;;
48987;SDS011;34799;51.440;-2.534;2023-05-07T04:11:27;46.20;;;17.92;;
48987;SDS011;34799;51.440;-2.534;2023-05-07T04:14:07;42.65;;;18.17;;
48987;SDS011;34799;51.440;-2.534;2023-05-07T04:16:42;51.20;;;18.55;;
48987;SDS011;34799;51.440;-2.534;2023-05-07T04:19:33;38.33;;;17.60;;
48987;SDS011;34799;51.440;-2.534;2023-05-07T04:22:04;43.22;;;18.15;;
48987;SDS011;34799;51.440;-2.534;2023-05-07T04:24:45;37.67;;;16.27;;
48987;SDS011;34799;51.440;-2.534;2023-05-07T04:27:16;36.70;;;16.45;;
48987;SDS011;34799;51.440;-2.534;2023-05-07T04:29:44;39.65;;;16.48;;
48987;SDS011;34799;51.440;-2.534;2023-05-07T04:32:16;40.05;;;16.92;;
48987;SDS011;34799;51.440;-2.534;2023-05-07T04:34:49;40.40;;;17.20;;
48987;SDS011;34799;51.440;-2.534;2023-05-07T04:37:27;38.92;;;15.52;;
48987;SDS011;34799;51.440;-2.534;2023-05-07T04:40:05;39.00;;;16.98;;
48987;SDS011;34799;51.440;-2.534;2023-05-07T04:42:44;38.92;;;17.23;;
48987;SDS011;34799;51.440;-2.534;2023-05-07T04:45:12;40.08;;;15.90;;
48987;SDS011;34799;51.440;-2.534;2023-05-07T04:47:44;37.40;;;15.80;;
48987;SDS011;34799;51.440;-2.534;2023-05-07T04:50:18;36.25;;;15.00;;
48987;SDS011;34799;51.440;-2.534;2023-05-07T04:52:51;37.78;;;15.38;;
48987;SDS011;34799;51.440;-2.534;2023-05-07T04:55:25;37.22;;;14.15;;
48987;SDS011;34799;51.440;-2.534;2023-05-07T04:57:55;32.47;;;14.40;;
48987;SDS011;34799;51.440;-2.534;2023-05-07T05:00:30;34.40;;;13.55;;
48987;SDS011;34799;51.440;-2.534;2023-05-07T05:03:04;27.42;;;12.52;;
48987;SDS011;34799;51.440;-2.534;2023-05-07T05:05:38;21.65;;;10.60;;
48987;SDS011;34799;51.440;-2.534;2023-05-07T05:08:18;31.45;;;11.75;;
48987;SDS011;34799;51.440;-2.534;2023-05-07T05:10:53;22.63;;;10.93;;
48987;SDS011;34799;51.440;-2.534;2023-05-07T05:13:42;24.33;;;10.45;;
48987;SDS011;34799;51.440;-2.534;2023-05-07T05:16:37;21.80;;;9.43;;
48987;SDS011;34799;51.440;-2.534;2023-05-07T05:19:20;22.30;;;10.25;;
48987;SDS011;34799;51.440;-2.534;2023-05-07T05:21:56;21.67;;;10.23;;
48987;SDS011;34799;51.440;-2.534;2023-05-07T05:24:25;22.85;;;10.50;;
48987;SDS011;34799;51.440;-2.534;2023-05-07T05:26:55;26.73;;;10.77;;
48987;SDS011;34799;51.440;-2.534;2023-05-07T05:29:28;30.65;;;11.57;;
48987;SDS011;34799;51.440;-2.534;2023-05-07T05:31:58;28.58;;;10.88;;
48987;SDS011;34799;51.440;-2.534;2023-05-07T05:34:34;26.63;;;10.60;;
48987;SDS011;34799;51.440;-2.534;2023-05-07T05:37:09;31.00;;;11.68;;
48987;SDS011;34799;51.440;-2.534;2023-05-07T05:39:39;28.75;;;11.85;;
48987;SDS011;34799;51.440;-2.534;2023-05-07T05:42:13;30.30;;;11.85;;
48987;SDS011;34799;51.440;-2.534;2023-05-07T05:44:51;30.80;;;11.75;;
48987;SDS011;34799;51.440;-2.534;2023-05-07T05:47:23;32.25;;;11.18;;
48987;SDS011;34799;51.440;-2.534;2023-05-07T05:49:56;28.33;;;11.25;;
48987;SDS011;34799;51.440;-2.534;2023-05-07T05:52:31;32.75;;;11.45;;
48987;SDS011;34799;51.440;-2.534;2023-05-07T05:55:03;26.38;;;10.70;;
48987;SDS011;34799;51.440;-2.534;2023-05-07T05:57:35;27.90;;;11.25;;
48987;SDS011;34799;51.440;-2.534;2023-05-07T06:00:09;30.05;;;11.60;;
48987;SDS011;34799;51.440;-2.534;2023-05-07T06:02:46;25.02;;;11.57;;
48987;SDS011;34799;51.440;-2.534;2023-05-07T06:05:20;30.95;;;12.15;;
48987;SDS011;34799;51.440;-2.534;2023-05-07T06:07:54;27.65;;;11.50;;
48987;SDS011;34799;51.440;-2.534;2023-05-07T06:10:25;24.40;;;10.98;;
48987;SDS011;34799;51.440;-2.534;2023-05-07T06:13:02;25.52;;;11.07;;
48987;SDS011;34799;51.440;-2.534;2023-05-07T06:15:33;28.83;;;11.05;;
48987;SDS011;34799;51.440;-2.534;2023-05-07T06:18:10;27.88;;;11.65;;
48987;SDS011;34799;51.440;-2.534;2023-05-07T06:20:37;28.30;;;11.30;;
48987;SDS011;34799;51.440;-2.534;2023-05-07T06:23:10;27.50;;;11.07;;
48987;SDS011;34799;51.440;-2.534;2023-05-07T06:25:50;22.05;;;10.65;;
48987;SDS011;34799;51.440;-2.534;2023-05-07T06:28:24;24.90;;;9.73;;
48987;SDS011;34799;51.440;-2.534;2023-05-07T06:31:21;24.42;;;10.07;;
48987;SDS011;34799;51.440;-2.534;2023-05-07T06:34:19;26.15;;;10.65;;
48987;SDS011;34799;51.440;-2.534;2023-05-07T06:36:54;22.92;;;9.02;;
48987;SDS011;34799;51.440;-2.534;2023-05-07T06:39:39;24.45;;;10.05;;
48987;SDS011;34799;51.440;-2.534;2023-05-07T06:42:13;23.55;;;9.15;;
48987;SDS011;34799;51.440;-2.534;2023-05-07T06:44:57;23.33;;;9.40;;
48987;SDS011;34799;51.440;-2.534;2023-05-07T06:47:26;17.95;;;8.85;;
48987;SDS011;34799;51.440;-2.534;2023-05-07T06:49:59;22.48;;;9.02;;
48987;SDS011;34799;51.440;-2.534;2023-05-07T06:52:31;19.35;;;8.30;;
48987;SDS011;34799;51.440;-2.534;2023-05-07T06:55:08;15.07;;;7.15;;
48987;SDS011;34799;51.440;-2.534;2023-05-07T07:00:39;21.63;;;7.72;;
48987;SDS011;34799;51.440;-2.534;2023-05-07T07:03:12;15.75;;;7.10;;
48987;SDS011;34799;51.440;-2.534;2023-05-07T07:09:36;17.02;;;7.07;;
48987;SDS011;34799;51.440;-2.534;2023-05-07T07:12:07;17.88;;;6.95;;
48987;SDS011;34799;51.440;-2.534;2023-05-07T07:15:02;16.42;;;6.25;;
48987;SDS011;34799;51.440;-2.534;2023-05-07T07:17:41;20.75;;;8.38;;
48987;SDS011;34799;51.440;-2.534;2023-05-07T07:20:09;20.25;;;8.35;;
48987;SDS011;34799;51.440;-2.534;2023-05-07T07:22:46;20.08;;;9.32;;
48987;SDS011;34799;51.440;-2.534;2023-05-07T07:25:21;20.85;;;8.57;;
48987;SDS011;34799;51.440;-2.534;2023-05-07T07:27:56;17.83;;;8.20;;
48987;SDS011;34799;51.440;-2.534;2023-05-07T07:30:26;17.23;;;6.28;;
48987;SDS011;34799;51.440;-2.534;2023-05-07T07:32:57;15.73;;;6.70;;
48987;SDS011;34799;51.440;-2.534;2023-05-07T07:35:34;14.00;;;5.80;;
48987;SDS011;34799;51.440;-2.534;2023-05-07T07:38:08;14.13;;;5.38;;
48987;SDS011;34799;51.440;-2.534;2023-05-07T07:40:42;13.35;;;5.50;;
48987;SDS011;34799;51.440;-2.534;2023-05-07T07:46:46;15.75;;;6.50;;
48987;SDS011;34799;51.440;-2.534;2023-05-07T07:53:14;14.60;;;5.30;;
48987;SDS011;34799;51.440;-2.534;2023-05-07T07:55:50;13.52;;;5.47;;
48987;SDS011;34799;51.440;-2.534;2023-05-07T07:58:32;12.30;;;4.80;;
48987;SDS011;34799;51.440;-2.534;2023-05-07T08:01:09;12.82;;;5.15;;
48987;SDS011;34799;51.440;-2.534;2023-05-07T08:03:48;11.07;;;4.43;;
48987;SDS011;34799;51.440;-2.534;2023-05-07T08:06:17;13.30;;;3.63;;
48987;SDS011;34799;51.440;-2.534;2023-05-07T08:08:56;11.93;;;3.85;;
48987;SDS011;34799;51.440;-2.534;2023-05-07T08:11:30;11.10;;;3.55;;
48987;SDS011;34799;51.440;-2.534;2023-05-07T08:13:59;11.18;;;3.80;;
48987;SDS011;34799;51.440;-2.534;2023-05-07T08:16:29;15.52;;;4.00;;
48987;SDS011;34799;51.440;-2.534;2023-05-07T08:19:06;8.02;;;3.10;;
48987;SDS011;34799;51.440;-2.534;2023-05-07T08:21:40;7.55;;;2.97;;
48987;SDS011;34799;51.440;-2.534;2023-05-07T08:24:16;10.27;;;3.15;;
48987;SDS011;34799;51.440;-2.534;2023-05-07T08:27:00;7.18;;;2.78;;
48987;SDS011;34799;51.440;-2.534;2023-05-07T08:29:40;7.53;;;1.67;;
48987;SDS011;34799;51.440;-2.534;2023-05-07T08:32:20;11.55;;;1.30;;
48987;SDS011;34799;51.440;-2.534;2023-05-07T08:35:14;9.23;;;1.35;;
48987;SDS011;34799;51.440;-2.534;2023-05-07T08:37:51;6.18;;;1.25;;
48987;SDS011;34799;51.440;-2.534;2023-05-07T08:40:47;5.30;;;1.38;;
48987;SDS011;34799;51.440;-2.534;2023-05-07T08:43:21;4.03;;;1.30;;
48987;SDS011;34799;51.440;-2.534;2023-05-07T08:46:03;6.55;;;1.20;;
48987;SDS011;34799;51.440;-2.534;2023-05-07T08:48:42;5.63;;;0.98;;
48987;SDS011;34799;51.440;-2.534;2023-05-07T08:54:28;7.80;;;1.33;;
48987;SDS011;34799;51.440;-2.534;2023-05-07T08:57:01;6.85;;;1.33;;
48987;SDS011;34799;51.440;-2.534;2023-05-07T08:59:55;10.40;;;2.00;;
48987;SDS011;34799;51.440;-2.534;2023-05-07T09:02:35;7.20;;;1.17;;
48987;SDS011;34799;51.440;-2.534;2023-05-07T09:05:10;5.50;;;1.50;;
48987;SDS011;34799;51.440;-2.534;2023-05-07T09:08:07;7.40;;;1.77;;
48987;SDS011;34799;51.440;-2.534;2023-05-07T09:11:02;6.50;;;1.85;;
48987;SDS011;34799;51.440;-2.534;2023-05-07T09:13:58;7.68;;;1.52;;
48987;SDS011;34799;51.440;-2.534;2023-05-07T09:16:40;9.35;;;1.88;;
48987;SDS011;34799;51.440;-2.534;2023-05-07T09:22:23;7.32;;;2.30;;
48987;SDS011;34799;51.440;-2.534;2023-05-07T09:26:00;7.45;;;2.47;;
48987;SDS011;34799;51.440;-2.534;2023-05-07T09:28:33;5.53;;;2.30;;
48987;SDS011;34799;51.440;-2.534;2023-05-07T09:31:12;6.20;;;1.40;;
48987;SDS011;34799;51.440;-2.534;2023-05-07T09:33:47;6.93;;;2.13;;
48987;SDS011;34799;51.440;-2.534;2023-05-07T09:37:06;6.55;;;2.35;;
48987;SDS011;34799;51.440;-2.534;2023-05-07T09:39:45;9.50;;;2.80;;
48987;SDS011;34799;51.440;-2.534;2023-05-07T09:42:26;8.30;;;3.42;;
48987;SDS011;34799;51.440;-2.534;2023-05-07T09:45:28;12.25;;;4.07;;
48987;SDS011;34799;51.440;-2.534;2023-05-07T09:48:00;8.15;;;4.20;;
48987;SDS011;34799;51.440;-2.534;2023-05-07T09:50:48;11.02;;;5.05;;
48987;SDS011;34799;51.440;-2.534;2023-05-07T09:53:42;14.25;;;5.05;;
48987;SDS011;34799;51.440;-2.534;2023-05-07T09:56:26;14.77;;;6.53;;
48987;SDS011;34799;51.440;-2.534;2023-05-07T09:59:00;17.02;;;6.57;;
48987;SDS011;34799;51.440;-2.534;2023-05-07T10:01:32;13.38;;;6.18;;
48987;SDS011;34799;51.440;-2.534;2023-05-07T10:04:07;10.63;;;5.32;;
48987;SDS011;34799;51.440;-2.534;2023-05-07T10:07:03;17.20;;;6.03;;
48987;SDS011;34799;51.440;-2.534;2023-05-07T10:09:39;11.43;;;5.57;;
48987;SDS011;34799;51.440;-2.534;2023-05-07T10:12:27;12.55;;;5.78;;
48987;SDS011;34799;51.440;-2.534;2023-05-07T10:15:01;11.73;;;5.03;;
48987;SDS011;34799;51.440;-2.534;2023-05-07T10:18:01;11.73;;;4.85;;
48987;SDS011;34799;51.440;-2.534;2023-05-07T10:20:51;10.23;;;4.47;;
48987;SDS011;34799;51.440;-2.534;2023-05-07T10:23:33;11.70;;;3.83;;
48987;SDS011;34799;51.440;-2.534;2023-05-07T10:36:46;8.15;;;2.42;;
48987;SDS011;34799;51.440;-2.534;2023-05-07T10:39:15;9.57;;;2.78;;
48987;SDS011;34799;51.440;-2.534;2023-05-07T10:41:43;10.52;;;2.92;;
48987;SDS011;34799;51.440;-2.534;2023-05-07T10:44:10;8.82;;;2.25;;
48987;SDS011;34799;51.440;-2.534;2023-05-07T10:46:37;7.15;;;1.70;;
48987;SDS011;34799;51.440;-2.534;2023-05-07T10:49:13;3.70;;;1.77;;
48987;SDS011;34799;51.440;-2.534;2023-05-07T10:52:25;5.50;;;1.80;;
48987;SDS011;34799;51.440;-2.534;2023-05-07T11:01:04;6.20;;;2.20;;
48987;SDS011;34799;51.440;-2.534;2023-05-07T11:04:12;6.95;;;2.60;;
48987;SDS011;34799;51.440;-2.534;2023-05-07T11:15:34;8.77;;;3.60;;
48987;SDS011;34799;51.440;-2.534;2023-05-07T11:18:15;8.60;;;2.95;;
48987;SDS011;34799;51.440;-2.534;2023-05-07T11:26:10;7.75;;;4.53;;
48987;SDS011;34799;51.440;-2.534;2023-05-07T11:28:39;6.35;;;2.80;;
48987;SDS011;34799;51.440;-2.534;2023-05-07T11:31:09;8.18;;;3.30;;
48987;SDS011;34799;51.440;-2.534;2023-05-07T11:33:39;8.82;;;2.78;;
48987;SDS011;34799;51.440;-2.534;2023-05-07T11:36:11;8.05;;;2.72;;
48987;SDS011;34799;51.440;-2.534;2023-05-07T11:38:45;7.10;;;2.75;;
48987;SDS011;34799;51.440;-2.534;2023-05-07T11:41:12;8.13;;;3.05;;
48987;SDS011;34799;51.440;-2.534;2023-05-07T11:43:53;7.20;;;2.85;;
48987;SDS011;34799;51.440;-2.534;2023-05-07T11:46:22;5.20;;;2.45;;
48987;SDS011;34799;51.440;-2.534;2023-05-07T11:48:49;6.05;;;3.08;;
48987;SDS011;34799;51.440;-2.534;2023-05-07T11:51:20;7.05;;;2.97;;
48987;SDS011;34799;51.440;-2.534;2023-05-07T11:53:48;5.30;;;2.38;;
48987;SDS011;34799;51.440;-2.534;2023-05-07T11:56:17;6.25;;;3.05;;
48987;SDS011;34799;51.440;-2.534;2023-05-07T11:58:46;6.95;;;2.58;;
48987;SDS011;34799;51.440;-2.534;2023-05-07T12:01:14;6.97;;;3.13;;
48987;SDS011;34799;51.440;-2.534;2023-05-07T12:03:43;7.65;;;3.42;;
48987;SDS011;34799;51.440;-2.534;2023-05-07T12:06:13;4.85;;;2.75;;
48987;SDS011;34799;51.440;-2.534;2023-05-07T12:08:42;9.82;;;4.65;;
48987;SDS011;34799;51.440;-2.534;2023-05-07T12:11:15;10.35;;;4.80;;
48987;SDS011;34799;51.440;-2.534;2023-05-07T12:13:49;8.45;;;5.43;;
48987;SDS011;34799;51.440;-2.534;2023-05-07T12:16:18;9.43;;;4.38;;
48987;SDS011;34799;51.440;-2.534;2023-05-07T12:18:46;10.77;;;6.13;;
48987;SDS011;34799;51.440;-2.534;2023-05-07T12:21:13;13.38;;;6.18;;
48987;SDS011;34799;51.440;-2.534;2023-05-07T12:23:41;11.45;;;5.22;;
48987;SDS011;34799;51.440;-2.534;2023-05-07T12:26:08;11.75;;;4.85;;
48987;SDS011;34799;51.440;-2.534;2023-05-07T12:28:38;9.82;;;4.68;;
48987;SDS011;34799;51.440;-2.534;2023-05-07T12:31:06;10.68;;;4.07;;
48987;SDS011;34799;51.440;-2.534;2023-05-07T12:33:34;9.20;;;4.28;;
48987;SDS011;34799;51.440;-2.534;2023-05-07T12:36:06;7.97;;;4.22;;
48987;SDS011;34799;51.440;-2.534;2023-05-07T12:38:37;8.30;;;3.50;;
48987;SDS011;34799;51.440;-2.534;2023-05-07T12:41:08;11.63;;;3.95;;
48987;SDS011;34799;51.440;-2.534;2023-05-07T12:43:38;8.25;;;3.35;;
48987;SDS011;34799;51.440;-2.534;2023-05-07T12:46:06;8.35;;;3.75;;
48987;SDS011;34799;51.440;-2.534;2023-05-07T12:48:37;8.80;;;3.45;;
48987;SDS011;34799;51.440;-2.534;2023-05-07T12:51:05;10.23;;;4.00;;
48987;SDS011;34799;51.440;-2.534;2023-05-07T12:53:33;10.63;;;4.15;;
48987;SDS011;34799;51.440;-2.534;2023-05-07T12:56:05;6.57;;;3.35;;
48987;SDS011;34799;51.440;-2.534;2023-05-07T12:58:33;7.88;;;2.80;;
48987;SDS011;34799;51.440;-2.534;2023-05-07T13:01:04;9.63;;;4.15;;
48987;SDS011;34799;51.440;-2.534;2023-05-07T13:03:34;13.57;;;3.65;;
48987;SDS011;34799;51.440;-2.534;2023-05-07T13:06:06;6.90;;;1.95;;
48987;SDS011;34799;51.440;-2.534;2023-05-07T13:08:42;4.82;;;1.65;;
48987;SDS011;34799;51.440;-2.534;2023-05-07T13:11:10;6.53;;;1.48;;
48987;SDS011;34799;51.440;-2.534;2023-05-07T13:13:38;9.32;;;0.93;;
48987;SDS011;34799;51.440;-2.534;2023-05-07T13:16:07;4.63;;;1.25;;
48987;SDS011;34799;51.440;-2.534;2023-05-07T13:18:38;4.13;;;0.80;;
48987;SDS011;34799;51.440;-2.534;2023-05-07T13:21:06;11.00;;;1.50;;
48987;SDS011;34799;51.440;-2.534;2023-05-07T13:23:33;8.23;;;1.15;;
48987;SDS011;34799;51.440;-2.534;2023-05-07T13:26:00;7.22;;;1.27;;
48987;SDS011;34799;51.440;-2.534;2023-05-07T13:28:31;5.22;;;1.23;;
48987;SDS011;34799;51.440;-2.534;2023-05-07T13:30:58;4.90;;;0.95;;
48987;SDS011;34799;51.440;-2.534;2023-05-07T13:33:25;3.60;;;0.98;;
48987;SDS011;34799;51.440;-2.534;2023-05-07T13:35:52;4.20;;;0.63;;
48987;SDS011;34799;51.440;-2.534;2023-05-07T13:38:19;5.18;;;0.90;;
48987;SDS011;34799;51.440;-2.534;2023-05-07T13:40:46;6.30;;;0.60;;
48987;SDS011;34799;51.440;-2.534;2023-05-07T13:43:13;6.00;;;1.15;;
48987;SDS011;34799;51.440;-2.534;2023-05-07T13:45:41;5.28;;;0.50;;
48987;SDS011;34799;51.440;-2.534;2023-05-07T13:48:08;6.70;;;1.05;;
48987;SDS011;34799;51.440;-2.534;2023-05-07T13:50:36;7.15;;;0.82;;
48987;SDS011;34799;51.440;-2.534;2023-05-07T13:53:04;4.88;;;1.02;;
48987;SDS011;34799;51.440;-2.534;2023-05-07T13:55:31;4.50;;;0.85;;
48987;SDS011;34799;51.440;-2.534;2023-05-07T13:57:59;3.03;;;0.77;;
48987;SDS011;34799;51.440;-2.534;2023-05-07T14:00:27;4.28;;;1.15;;
48987;SDS011;34799;51.440;-2.534;2023-05-07T14:02:56;2.83;;;0.60;;
48987;SDS011;34799;51.440;-2.534;2023-05-07T14:05:24;5.60;;;1.15;;
48987;SDS011;34799;51.440;-2.534;2023-05-07T14:07:51;5.35;;;1.42;;
48987;SDS011;34799;51.440;-2.534;2023-05-07T14:10:19;3.10;;;0.80;;
48987;SDS011;34799;51.440;-2.534;2023-05-07T14:12:46;4.30;;;1.27;;
48987;SDS011;34799;51.440;-2.534;2023-05-07T14:15:14;3.15;;;0.70;;
48987;SDS011;34799;51.440;-2.534;2023-05-07T14:17:42;4.40;;;0.90;;
48987;SDS011;34799;51.440;-2.534;2023-05-07T14:20:12;5.45;;;1.15;;
48987;SDS011;34799;51.440;-2.534;2023-05-07T14:22:39;4.45;;;0.73;;
48987;SDS011;34799;51.440;-2.534;2023-05-07T14:25:06;5.70;;;1.20;;
48987;SDS011;34799;51.440;-2.534;2023-05-07T14:27:35;6.05;;;1.45;;
48987;SDS011;34799;51.440;-2.534;2023-05-07T14:30:04;4.13;;;1.83;;
48987;SDS011;34799;51.440;-2.534;2023-05-07T14:32:32;8.02;;;2.33;;
48987;SDS011;34799;51.440;-2.534;2023-05-07T14:35:00;6.90;;;0.98;;
48987;SDS011;34799;51.440;-2.534;2023-05-07T14:37:27;4.80;;;0.80;;
48987;SDS011;34799;51.440;-2.534;2023-05-07T14:39:54;6.10;;;1.30;;
48987;SDS011;34799;51.440;-2.534;2023-05-07T14:42:21;8.73;;;0.77;;
48987;SDS011;34799;51.440;-2.534;2023-05-07T14:44:48;6.57;;;1.80;;
48987;SDS011;34799;51.440;-2.534;2023-05-07T14:47:15;4.40;;;1.15;;
48987;SDS011;34799;51.440;-2.534;2023-05-07T14:49:44;4.43;;;0.82;;
48987;SDS011;34799;51.440;-2.534;2023-05-07T14:52:12;3.72;;;0.60;;
48987;SDS011;34799;51.440;-2.534;2023-05-07T14:54:39;8.32;;;1.23;;
48987;SDS011;34799;51.440;-2.534;2023-05-07T14:57:06;3.67;;;0.70;;
48987;SDS011;34799;51.440;-2.534;2023-05-07T14:59:37;4.35;;;0.90;;
48987;SDS011;34799;51.440;-2.534;2023-05-07T15:02:05;3.83;;;0.60;;
48987;SDS011;34799;51.440;-2.534;2023-05-07T15:04:35;3.90;;;0.88;;
48987;SDS011;34799;51.440;-2.534;2023-05-07T15:07:02;3.28;;;0.98;;
48987;SDS011;34799;51.440;-2.534;2023-05-07T15:09:29;3.92;;;0.95;;
48987;SDS011;34799;51.440;-2.534;2023-05-07T15:11:56;4.63;;;0.85;;
48987;SDS011;34799;51.440;-2.534;2023-05-07T15:14:25;4.57;;;1.45;;
48987;SDS011;34799;51.440;-2.534;2023-05-07T15:16:52;3.92;;;0.73;;
48987;SDS011;34799;51.440;-2.534;2023-05-07T15:19:19;6.88;;;0.75;;
48987;SDS011;34799;51.440;-2.534;2023-05-07T15:21:48;4.93;;;0.98;;
48987;SDS011;34799;51.440;-2.534;2023-05-07T15:24:15;4.05;;;1.10;;
48987;SDS011;34799;51.440;-2.534;2023-05-07T15:26:42;4.15;;;0.65;;
48987;SDS011;34799;51.440;-2.534;2023-05-07T15:29:09;3.88;;;0.68;;
48987;SDS011;34799;51.440;-2.534;2023-05-07T15:31:38;2.38;;;0.60;;
48987;SDS011;34799;51.440;-2.534;2023-05-07T15:34:05;7.07;;;0.70;;
48987;SDS011;34799;51.440;-2.534;2023-05-07T15:36:33;6.00;;;0.80;;
48987;SDS011;34799;51.440;-2.534;2023-05-07T15:39:00;3.33;;;1.17;;
48987;SDS011;34799;51.440;-2.534;2023-05-07T15:41:29;5.43;;;0.70;;
48987;SDS011;34799;51.440;-2.534;2023-05-07T15:43:56;3.17;;;0.50;;
48987;SDS011;34799;51.440;-2.534;2023-05-07T15:46:25;4.55;;;0.65;;
48987;SDS011;34799;51.440;-2.534;2023-05-07T15:48:52;2.22;;;0.35;;